sensor_id;sensor_type;location;lat;lon;timestamp;pressure;altitude;pressure_sealevel;temperature;humidity
3844;BME280;1937;51.444;6.484;2022-10-01T00:01:59;71225.69;;;12.06;100.00
3844;BME280;1937;51.444;6.484;2022-10-01T00:04:28;71815.50;;;12.13;100.00
3844;BME280;1937;51.444;6.484;2022-10-01T00:06:57;72207.78;;;12.09;100.00
3844;BME280;1937;51.444;6.484;2022-10-01T00:09:31;72789.66;;;12.13;100.00
3844;BME280;1937;51.444;6.484;2022-10-01T00:12:00;73330.94;;;11.98;100.00
3844;BME280;1937;51.444;6.484;2022-10-01T00:14:29;74154.06;;;11.97;100.00
3844;BME280;1937;51.444;6.484;2022-10-01T00:16:58;74803.53;;;11.91;100.00
3844;BME280;1937;51.444;6.484;2022-10-01T00:19:26;75387.13;;;11.82;100.00
3844;BME280;1937;51.444;6.484;2022-10-01T00:21:54;75923.31;;;11.63;100.00
3844;BME280;1937;51.444;6.484;2022-10-01T00:24:23;76671.28;;;11.76;100.00
3844;BME280;1937;51.444;6.484;2022-10-01T00:26:52;76891.59;;;11.72;100.00
3844;BME280;1937;51.444;6.484;2022-10-01T00:29:21;77729.03;;;11.62;100.00
3844;BME280;1937;51.444;6.484;2022-10-01T00:31:49;78666.72;;;11.65;100.00
3844;BME280;1937;51.444;6.484;2022-10-01T00:34:17;79842.06;;;11.58;100.00
3844;BME280;1937;51.444;6.484;2022-10-01T00:36:45;80736.34;;;11.61;100.00
3844;BME280;1937;51.444;6.484;2022-10-01T00:39:15;81780.25;;;11.56;100.00
3844;BME280;1937;51.444;6.484;2022-10-01T00:41:43;83153.69;;;11.55;100.00
3844;BME280;1937;51.444;6.484;2022-10-01T00:44:30;83668.75;;;11.62;100.00
3844;BME280;1937;51.444;6.484;2022-10-01T00:47:01;83511.06;;;11.55;100.00
3844;BME280;1937;51.444;6.484;2022-10-01T00:49:32;84592.91;;;11.49;100.00
3844;BME280;1937;51.444;6.484;2022-10-01T00:52:07;85298.19;;;11.57;100.00
3844;BME280;1937;51.444;6.484;2022-10-01T00:54:41;85982.75;;;11.55;100.00
3844;BME280;1937;51.444;6.484;2022-10-01T00:57:14;87307.25;;;11.44;100.00
3844;BME280;1937;51.444;6.484;2022-10-01T00:59:45;88302.97;;;11.60;100.00
3844;BME280;1937;51.444;6.484;2022-10-01T01:02:14;88862.88;;;11.41;100.00
3844;BME280;1937;51.444;6.484;2022-10-01T01:04:43;90586.53;;;11.48;100.00
3844;BME280;1937;51.444;6.484;2022-10-01T01:07:13;91340.41;;;11.36;100.00
3844;BME280;1937;51.444;6.484;2022-10-01T01:09:45;92895.38;;;11.53;100.00
3844;BME280;1937;51.444;6.484;2022-10-01T01:12:22;92813.16;;;11.46;100.00
3844;BME280;1937;51.444;6.484;2022-10-01T01:14:59;92853.31;;;11.44;100.00
3844;BME280;1937;51.444;6.484;2022-10-01T01:17:37;93179.09;;;11.48;100.00
3844;BME280;1937;51.444;6.484;2022-10-01T01:20:24;93679.69;;;11.46;100.00
3844;BME280;1937;51.444;6.484;2022-10-01T01:23:02;93192.63;;;11.50;100.00
3844;BME280;1937;51.444;6.484;2022-10-01T01:25:37;92700.09;;;11.62;100.00
3844;BME280;1937;51.444;6.484;2022-10-01T01:28:16;90882.09;;;11.55;100.00
3844;BME280;1937;51.444;6.484;2022-10-01T01:30:50;91093.63;;;11.47;100.00
3844;BME280;1937;51.444;6.484;2022-10-01T01:33:23;92256.41;;;11.54;100.00
3844;BME280;1937;51.444;6.484;2022-10-01T01:35:57;91874.25;;;11.57;100.00
3844;BME280;1937;51.444;6.484;2022-10-01T01:38:29;92571.00;;;11.51;100.00
3844;BME280;1937;51.444;6.484;2022-10-01T01:41:02;93051.25;;;11.46;100.00
3844;BME280;1937;51.444;6.484;2022-10-01T01:43:36;93418.00;;;11.35;100.00
3844;BME280;1937;51.444;6.484;2022-10-01T01:46:07;95457.78;;;11.52;100.00
3844;BME280;1937;51.444;6.484;2022-10-01T01:48:39;95647.75;;;11.58;100.00
3844;BME280;1937;51.444;6.484;2022-10-01T01:51:13;95337.59;;;11.49;100.00
3844;BME280;1937;51.444;6.484;2022-10-01T01:53:45;96028.47;;;11.54;100.00
3844;BME280;1937;51.444;6.484;2022-10-01T01:56:13;96456.22;;;11.68;100.00
3844;BME280;1937;51.444;6.484;2022-10-01T01:58:46;95838.56;;;11.65;100.00
3844;BME280;1937;51.444;6.484;2022-10-01T02:01:38;96599.63;;;11.63;100.00
3844;BME280;1937;51.444;6.484;2022-10-01T02:04:09;97404.38;;;11.58;100.00
3844;BME280;1937;51.444;6.484;2022-10-01T02:06:51;98809.13;;;11.53;100.00
3844;BME280;1937;51.444;6.484;2022-10-01T02:09:29;99561.88;;;11.52;100.00
3844;BME280;1937;51.444;6.484;2022-10-01T02:12:05;100701.78;;;11.43;100.00
3844;BME280;1937;51.444;6.484;2022-10-01T02:14:45;102057.06;;;11.56;100.00
3844;BME280;1937;51.444;6.484;2022-10-01T02:17:26;102707.09;;;11.46;100.00
3844;BME280;1937;51.444;6.484;2022-10-01T02:19:58;104390.91;;;11.56;100.00
3844;BME280;1937;51.444;6.484;2022-10-01T02:22:37;104717.31;;;11.52;100.00
3844;BME280;1937;51.444;6.484;2022-10-01T02:25:12;106695.38;;;11.39;100.00
3844;BME280;1937;51.444;6.484;2022-10-01T02:27:46;109688.25;;;11.33;100.00
3844;BME280;1937;51.444;6.484;2022-10-01T02:30:18;111704.59;;;11.39;100.00
3844;BME280;1937;51.444;6.484;2022-10-01T02:32:49;112708.09;;;11.40;100.00
3844;BME280;1937;51.444;6.484;2022-10-01T02:35:19;112704.22;;;11.38;100.00
3844;BME280;1937;51.444;6.484;2022-10-01T02:37:51;113988.81;;;11.11;100.00
3844;BME280;1937;51.444;6.484;2022-10-01T02:40:23;117015.75;;;11.20;100.00
3844;BME280;1937;51.444;6.484;2022-10-01T02:42:55;118023.53;;;11.22;100.00
3844;BME280;1937;51.444;6.484;2022-10-01T02:45:28;119024.50;;;11.20;100.00
3844;BME280;1937;51.444;6.484;2022-10-01T02:48:04;119719.53;;;11.33;100.00
3844;BME280;1937;51.444;6.484;2022-10-01T02:50:37;119702.19;;;11.24;100.00
3844;BME280;1937;51.444;6.484;2022-10-01T02:53:12;120369.81;;;11.23;100.00
3844;BME280;1937;51.444;6.484;2022-10-01T02:55:46;121370.41;;;11.21;100.00
3844;BME280;1937;51.444;6.484;2022-10-01T02:58:16;123067.56;;;11.32;100.00
3844;BME280;1937;51.444;6.484;2022-10-01T03:00:47;123054.97;;;11.26;100.00
3844;BME280;1937;51.444;6.484;2022-10-01T03:03:15;123048.72;;;11.23;100.00
3844;BME280;1937;51.444;6.484;2022-10-01T03:05:44;123388.06;;;11.25;100.00
3844;BME280;1937;51.444;6.484;2022-10-01T03:08:12;123078.06;;;11.37;100.00
3844;BME280;1937;51.444;6.484;2022-10-01T03:10:40;123093.81;;;11.44;100.00
3844;BME280;1937;51.444;6.484;2022-10-01T03:13:09;122725.13;;;11.28;100.00
3844;BME280;1937;51.444;6.484;2022-10-01T03:15:38;123065.50;;;11.31;100.00
3844;BME280;1937;51.444;6.484;2022-10-01T03:18:07;123390.13;;;11.26;100.00
3844;BME280;1937;51.444;6.484;2022-10-01T03:20:36;124356.56;;;11.07;100.00
3844;BME280;1937;51.444;6.484;2022-10-01T03:23:04;126397.13;;;11.21;100.00
3844;BME280;1937;51.444;6.484;2022-10-01T03:25:32;127393.78;;;11.16;100.00
3844;BME280;1937;51.444;6.484;2022-10-01T03:28:02;127747.81;;;11.25;100.00
3844;BME280;1937;51.444;6.484;2022-10-01T03:30:30;128076.84;;;11.22;100.00
3844;BME280;1937;51.444;6.484;2022-10-01T03:32:59;128388.38;;;11.11;100.00
3844;BME280;1937;51.444;6.484;2022-10-01T03:35:28;129431.59;;;11.27;100.00
3844;BME280;1937;51.444;6.484;2022-10-01T03:37:58;129746.34;;;11.18;100.00
3844;BME280;1937;51.444;6.484;2022-10-01T03:40:26;130417.88;;;11.18;100.00
3844;BME280;1937;51.444;6.484;2022-10-01T03:42:55;130445.66;;;11.30;100.00
3844;BME280;1937;51.444;6.484;2022-10-01T03:45:23;129409.53;;;11.17;100.00
3844;BME280;1937;51.444;6.484;2022-10-01T03:47:52;129733.09;;;11.12;100.00
3844;BME280;1937;51.444;6.484;2022-10-01T03:50:23;130777.06;;;11.28;100.00
3844;BME280;1937;51.444;6.484;2022-10-01T03:52:52;130816.09;;;11.46;100.00
3844;BME280;1937;51.444;6.484;2022-10-01T03:55:21;130130.88;;;11.40;100.00
3844;BME280;1937;51.444;6.484;2022-10-01T03:57:52;129806.06;;;11.45;100.00
3844;BME280;1937;51.444;6.484;2022-10-01T04:00:20;129484.56;;;11.52;100.00
3844;BME280;1937;51.444;6.484;2022-10-01T04:02:48;129149.78;;;11.52;100.00
3844;BME280;1937;51.444;6.484;2022-10-01T04:05:16;128147.81;;;11.55;100.00
3844;BME280;1937;51.444;6.484;2022-10-01T04:07:45;127793.56;;;11.46;100.00
3844;BME280;1937;51.444;6.484;2022-10-01T04:10:16;128159.84;;;11.60;100.00
3844;BME280;1937;51.444;6.484;2022-10-01T04:12:44;128125.97;;;11.44;100.00
3844;BME280;1937;51.444;6.484;2022-10-01T04:15:12;128847.97;;;11.68;100.00
3844;BME280;1937;51.444;6.484;2022-10-01T04:17:42;128521.91;;;11.72;100.00
3844;BME280;1937;51.444;6.484;2022-10-01T04:20:10;127825.13;;;11.61;100.00
3844;BME280;1937;51.444;6.484;2022-10-01T04:22:41;128228.69;;;11.92;100.00
3844;BME280;1937;51.444;6.484;2022-10-01T04:25:11;127210.03;;;11.87;100.00
3844;BME280;1937;51.444;6.484;2022-10-01T04:27:53;126897.97;;;11.98;100.00
3844;BME280;1937;51.444;6.484;2022-10-01T04:30:22;125878.66;;;11.93;100.00
3844;BME280;1937;51.444;6.484;2022-10-01T04:32:51;125237.06;;;12.07;100.00
3844;BME280;1937;51.444;6.484;2022-10-01T04:35:20;124887.47;;;12.00;100.00
3844;BME280;1937;51.444;6.484;2022-10-01T04:37:53;124548.59;;;11.99;100.00
3844;BME280;1937;51.444;6.484;2022-10-01T04:40:23;124230.94;;;12.07;100.00
3844;BME280;1937;51.444;6.484;2022-10-01T04:42:53;123563.81;;;12.09;100.00
3844;BME280;1937;51.444;6.484;2022-10-01T04:45:21;122245.47;;;12.21;100.00
3844;BME280;1937;51.444;6.484;2022-10-01T04:47:52;121574.41;;;12.21;100.00
3844;BME280;1937;51.444;6.484;2022-10-01T04:50:25;121247.19;;;12.25;100.00
3844;BME280;1937;51.444;6.484;2022-10-01T04:52:53;120926.09;;;12.32;100.00
3844;BME280;1937;51.444;6.484;2022-10-01T04:55:23;119895.22;;;12.20;100.00
3844;BME280;1937;51.444;6.484;2022-10-01T04:57:53;120575.25;;;12.24;100.00
3844;BME280;1937;51.444;6.484;2022-10-01T05:00:23;120262.34;;;12.36;100.00
3844;BME280;1937;51.444;6.484;2022-10-01T05:02:52;119550.72;;;12.15;100.00
3844;BME280;1937;51.444;6.484;2022-10-01T05:05:22;119559.88;;;12.20;100.00
3844;BME280;1937;51.444;6.484;2022-10-01T05:07:51;120235.72;;;12.22;100.00
3844;BME280;1937;51.444;6.484;2022-10-01T05:10:20;121239.94;;;12.21;100.00
3844;BME280;1937;51.444;6.484;2022-10-01T05:12:49;121578.56;;;12.23;100.00
3844;BME280;1937;51.444;6.484;2022-10-01T05:15:19;121573.34;;;12.20;100.00
3844;BME280;1937;51.444;6.484;2022-10-01T05:17:48;122266.34;;;12.31;100.00
3844;BME280;1937;51.444;6.484;2022-10-01T05:20:18;121922.38;;;12.27;100.00
3844;BME280;1937;51.444;6.484;2022-10-01T05:22:47;122231.94;;;12.14;100.00
3844;BME280;1937;51.444;6.484;2022-10-01T05:25:16;123591.19;;;12.22;100.00
3844;BME280;1937;51.444;6.484;2022-10-01T05:27:45;124276.44;;;12.29;100.00
3844;BME280;1937;51.444;6.484;2022-10-01T05:30:15;123612.25;;;12.32;100.00
3844;BME280;1937;51.444;6.484;2022-10-01T05:33:02;123295.41;;;12.42;100.00
3844;BME280;1937;51.444;6.484;2022-10-01T05:35:31;122938.69;;;12.31;100.00
3844;BME280;1937;51.444;6.484;2022-10-01T05:38:00;122972.22;;;12.48;100.00
3844;BME280;1937;51.444;6.484;2022-10-01T05:40:30;122626.00;;;12.43;100.00
3844;BME280;1937;51.444;6.484;2022-10-01T05:42:59;122943.94;;;12.34;100.00
3844;BME280;1937;51.444;6.484;2022-10-01T05:45:30;123302.75;;;12.45;100.00
3844;BME280;1937;51.444;6.484;2022-10-01T05:48:02;122966.97;;;12.45;100.00
3844;BME280;1937;51.444;6.484;2022-10-01T05:50:32;123317.47;;;12.52;100.00
3844;BME280;1937;51.444;6.484;2022-10-01T05:53:02;122640.59;;;12.50;100.00
3844;BME280;1937;51.444;6.484;2022-10-01T05:55:30;122977.44;;;12.50;100.00
3844;BME280;1937;51.444;6.484;2022-10-01T05:58:00;122982.69;;;12.53;100.00
3844;BME280;1937;51.444;6.484;2022-10-01T06:00:31;123299.59;;;12.44;100.00
3844;BME280;1937;51.444;6.484;2022-10-01T06:03:03;123303.81;;;12.46;100.00
3844;BME280;1937;51.444;6.484;2022-10-01T06:05:33;123996.59;;;12.56;100.00
3844;BME280;1937;51.444;6.484;2022-10-01T06:08:05;123974.44;;;12.45;100.00
3844;BME280;1937;51.444;6.484;2022-10-01T06:10:36;124651.56;;;12.48;100.00
3844;BME280;1937;51.444;6.484;2022-10-01T06:13:06;124703.53;;;12.72;100.00
3844;BME280;1937;51.444;6.484;2022-10-01T06:15:36;124373.84;;;12.76;100.00
3844;BME280;1937;51.444;6.484;2022-10-01T06:18:08;123015.16;;;12.68;100.00
3844;BME280;1937;51.444;6.484;2022-10-01T06:20:37;123355.28;;;12.70;100.00
3844;BME280;1937;51.444;6.484;2022-10-01T06:23:09;123020.41;;;12.71;100.00
3844;BME280;1937;51.444;6.484;2022-10-01T06:25:39;123052.84;;;12.87;100.00
3844;BME280;1937;51.444;6.484;2022-10-01T06:28:09;122378.81;;;12.86;100.00
3844;BME280;1937;51.444;6.484;2022-10-01T06:30:38;122034.59;;;12.82;100.00
3844;BME280;1937;51.444;6.484;2022-10-01T06:33:11;122048.13;;;12.88;100.00
3844;BME280;1937;51.444;6.484;2022-10-01T06:35:43;121686.31;;;12.76;100.00
3844;BME280;1937;51.444;6.484;2022-10-01T06:38:12;122359.03;;;12.76;100.00
3844;BME280;1937;51.444;6.484;2022-10-01T06:40:41;121698.75;;;12.82;100.00
3844;BME280;1937;51.444;6.484;2022-10-01T06:43:10;122003.41;;;12.66;100.00
3844;BME280;1937;51.444;6.484;2022-10-01T06:45:39;123020.41;;;12.71;100.00
3844;BME280;1937;51.444;6.484;2022-10-01T06:48:11;123712.28;;;12.81;100.00
3844;BME280;1937;51.444;6.484;2022-10-01T06:50:42;123052.84;;;12.87;100.00
3844;BME280;1937;51.444;6.484;2022-10-01T06:53:12;123060.19;;;12.90;100.00
3844;BME280;1937;51.444;6.484;2022-10-01T06:55:41;122712.69;;;12.85;100.00
3844;BME280;1937;51.444;6.484;2022-10-01T06:58:13;123069.63;;;12.95;100.00
3844;BME280;1937;51.444;6.484;2022-10-01T07:00:44;123401.50;;;12.93;100.00
3844;BME280;1937;51.444;6.484;2022-10-01T07:03:17;124067.38;;;12.90;100.00
3844;BME280;1937;51.444;6.484;2022-10-01T07:05:46;124116.00;;;13.13;100.00
3844;BME280;1937;51.444;6.484;2022-10-01T07:08:18;122414.25;;;13.03;100.00
3844;BME280;1937;51.444;6.484;2022-10-01T07:10:47;123083.28;;;13.01;100.00
3844;BME280;1937;51.444;6.484;2022-10-01T07:13:17;123102.09;;;13.10;100.00
3844;BME280;1937;51.444;6.484;2022-10-01T07:15:47;122759.72;;;13.07;100.00
3844;BME280;1937;51.444;6.484;2022-10-01T07:18:17;123114.72;;;13.17;100.00
3844;BME280;1937;51.444;6.484;2022-10-01T07:20:45;124176.25;;;13.42;100.00
3844;BME280;1937;51.444;6.484;2022-10-01T07:23:14;123158.72;;;13.38;100.00
3844;BME280;1937;51.444;6.484;2022-10-01T07:25:44;122506.03;;;13.47;100.00
3844;BME280;1937;51.444;6.484;2022-10-01T07:28:15;123197.53;;;13.57;100.00
3844;BME280;1937;51.444;6.484;2022-10-01T07:30:46;123199.63;;;13.58;100.00
3844;BME280;1937;51.444;6.484;2022-10-01T07:33:18;122548.78;;;13.68;100.00
3844;BME280;1937;51.444;6.484;2022-10-01T07:35:46;122226.94;;;13.75;100.00
3844;BME280;1937;51.444;6.484;2022-10-01T07:38:16;122597.78;;;13.92;100.00
3844;BME280;1937;51.444;6.484;2022-10-01T07:40:52;122609.25;;;13.98;100.00
3844;BME280;1937;51.444;6.484;2022-10-01T07:43:21;123010.69;;;14.29;100.00
3844;BME280;1937;51.444;6.484;2022-10-01T07:45:50;120667.41;;;14.35;100.00
3844;BME280;1937;51.444;6.484;2022-10-01T07:48:22;119320.31;;;14.35;100.00
3844;BME280;1937;51.444;6.484;2022-10-01T07:50:51;117977.78;;;14.37;100.00
3844;BME280;1937;51.444;6.484;2022-10-01T07:53:19;117307.19;;;14.38;100.00
3844;BME280;1937;51.444;6.484;2022-10-01T07:55:47;117687.53;;;14.60;100.00
3844;BME280;1937;51.444;6.484;2022-10-01T07:58:16;116999.78;;;14.52;100.00
3844;BME280;1937;51.444;6.484;2022-10-01T08:00:44;114973.63;;;14.48;100.00
3844;BME280;1937;51.444;6.484;2022-10-01T08:03:13;115673.44;;;14.62;100.00
3844;BME280;1937;51.444;6.484;2022-10-01T08:05:43;114343.28;;;14.69;100.00
3844;BME280;1937;51.444;6.484;2022-10-01T08:08:12;112396.66;;;15.06;100.00
3844;BME280;1937;51.444;6.484;2022-10-01T08:10:40;109019.78;;;14.97;100.00
3844;BME280;1937;51.444;6.484;2022-10-01T08:13:11;107651.22;;;14.83;100.00
3844;BME280;1937;51.444;6.484;2022-10-01T08:15:43;107629.22;;;14.71;100.00
3844;BME280;1937;51.444;6.484;2022-10-01T08:18:13;106655.47;;;14.89;100.00
3844;BME280;1937;51.444;6.484;2022-10-01T08:20:43;107679.59;;;14.99;100.00
3844;BME280;1937;51.444;6.484;2022-10-01T08:23:14;107378.66;;;15.18;100.00
3844;BME280;1937;51.444;6.484;2022-10-01T08:25:44;105031.81;;;15.20;100.00
3844;BME280;1937;51.444;6.484;2022-10-01T08:28:14;106376.94;;;15.21;100.00
3844;BME280;1937;51.444;6.484;2022-10-01T08:30:43;106381.47;;;15.24;100.00
3844;BME280;1937;51.444;6.484;2022-10-01T08:33:12;104334.16;;;15.04;100.00
3844;BME280;1937;51.444;6.484;2022-10-01T08:35:43;107364.94;;;15.10;100.00
3844;BME280;1937;51.444;6.484;2022-10-01T08:38:12;108770.94;;;15.45;100.00
3844;BME280;1937;51.444;6.484;2022-10-01T08:40:46;106109.00;;;15.59;100.00
3844;BME280;1937;51.444;6.484;2022-10-01T08:43:26;99521.59;;;15.37;100.00
3844;BME280;1937;51.444;6.484;2022-10-01T08:45:58;98494.34;;;15.41;100.00
3844;BME280;1937;51.444;6.484;2022-10-01T08:48:35;99428.34;;;15.52;100.00
3844;BME280;1937;51.444;6.484;2022-10-01T08:51:09;98996.50;;;15.49;100.00
3844;BME280;1937;51.444;6.484;2022-10-01T08:53:44;96752.44;;;15.32;100.00
3844;BME280;1937;51.444;6.484;2022-10-01T08:56:20;97238.09;;;15.12;100.00
3844;BME280;1937;51.444;6.484;2022-10-01T08:58:52;98457.06;;;14.98;100.00
3844;BME280;1937;51.444;6.484;2022-10-01T09:01:24;102317.16;;;15.01;100.00
3844;BME280;1937;51.444;6.484;2022-10-01T09:03:53;105634.59;;;14.81;100.00
3844;BME280;1937;51.444;6.484;2022-10-01T09:06:26;107983.13;;;14.81;100.00
3844;BME280;1937;51.444;6.484;2022-10-01T09:12:08;115065.59;;;14.95;100.00
3844;BME280;1937;51.444;6.484;2022-10-01T09:14:59;115706.88;;;14.79;100.00
3844;BME280;1937;51.444;6.484;2022-10-01T09:17:50;117435.94;;;15.03;100.00
3844;BME280;1937;51.444;6.484;2022-10-01T09:20:26;116991.84;;;14.48;100.00
3844;BME280;1937;51.444;6.484;2022-10-01T09:23:06;119049.69;;;14.68;100.00
3844;BME280;1937;51.444;6.484;2022-10-01T09:25:49;119366.03;;;14.58;100.00
3844;BME280;1937;51.444;6.484;2022-10-01T09:28:20;120039.25;;;14.58;100.00
3844;BME280;1937;51.444;6.484;2022-10-01T09:30:55;120699.25;;;14.51;100.00
3844;BME280;1937;51.444;6.484;2022-10-01T09:33:32;121672.13;;;14.33;100.00
3844;BME280;1937;51.444;6.484;2022-10-01T09:36:10;123372.72;;;14.41;100.00
3844;BME280;1937;51.444;6.484;2022-10-01T09:38:45;124426.81;;;14.62;100.00
3844;BME280;1937;51.444;6.484;2022-10-01T09:41:16;124809.56;;;14.84;100.00
3844;BME280;1937;51.444;6.484;2022-10-01T09:43:44;126225.25;;;15.15;100.00
3844;BME280;1937;51.444;6.484;2022-10-01T09:46:15;127726.44;;;15.85;100.00
3844;BME280;1937;51.444;6.484;2022-10-01T09:48:51;126406.63;;;16.01;100.00
3844;BME280;1937;51.444;6.484;2022-10-01T09:51:26;124399.06;;;16.10;100.00
3844;BME280;1937;51.444;6.484;2022-10-01T09:54:02;124474.06;;;16.46;100.00
3844;BME280;1937;51.444;6.484;2022-10-01T09:56:38;119397.19;;;16.42;100.00
3844;BME280;1937;51.444;6.484;2022-10-01T09:59:14;114377.94;;;16.63;100.00
3844;BME280;1937;51.444;6.484;2022-10-01T10:01:46;113138.78;;;17.20;100.00
3844;BME280;1937;51.444;6.484;2022-10-01T10:04:20;106033.38;;;17.05;100.00
3844;BME280;1937;51.444;6.484;2022-10-01T10:06:57;107719.75;;;17.07;100.00
3844;BME280;1937;51.444;6.484;2022-10-01T10:09:30;98496.47;;;16.75;100.00
3844;BME280;1937;51.444;6.484;2022-10-01T10:12:00;95504.84;;;16.61;100.00
3844;BME280;1937;51.444;6.484;2022-10-01T10:14:31;95978.13;;;16.62;100.00
3844;BME280;1937;51.444;6.484;2022-10-01T10:17:05;98544.00;;;16.58;100.00
3844;BME280;1937;51.444;6.484;2022-10-01T10:19:35;100436.78;;;16.86;100.00
3844;BME280;1937;51.444;6.484;2022-10-01T10:22:11;98059.50;;;17.38;100.00
3844;BME280;1937;51.444;6.484;2022-10-01T10:24:41;97308.16;;;17.44;100.00
3844;BME280;1937;51.444;6.484;2022-10-01T10:27:22;90015.28;;;16.87;100.00
3844;BME280;1937;51.444;6.484;2022-10-01T10:30:02;92744.28;;;17.35;100.00
3844;BME280;1937;51.444;6.484;2022-10-01T10:32:31;93645.31;;;17.23;100.00
3844;BME280;1937;51.444;6.484;2022-10-01T10:35:02;92838.28;;;17.26;100.00
3844;BME280;1937;51.444;6.484;2022-10-01T10:37:34;90532.63;;;17.09;100.00
3844;BME280;1937;51.444;6.484;2022-10-01T10:40:14;91261.03;;;16.70;100.00
3844;BME280;1937;51.444;6.484;2022-10-01T10:42:47;97258.63;;;17.22;100.00
3844;BME280;1937;51.444;6.484;2022-10-01T10:45:19;92307.56;;;17.74;100.00
3844;BME280;1937;51.444;6.484;2022-10-01T10:47:51;88221.31;;;18.25;100.00
3844;BME280;1937;51.444;6.484;2022-10-01T10:50:29;79987.66;;;18.05;97.30
3844;BME280;1937;51.444;6.484;2022-10-01T10:52:58;78742.28;;;18.28;97.01
3844;BME280;1937;51.444;6.484;2022-10-01T10:55:29;77323.91;;;18.07;97.52
3844;BME280;1937;51.444;6.484;2022-10-01T10:58:10;77172.38;;;18.07;96.45
3844;BME280;1937;51.444;6.484;2022-10-01T11:00:45;76125.03;;;17.92;95.62
3844;BME280;1937;51.444;6.484;2022-10-01T11:03:19;75866.03;;;17.76;96.38
3844;BME280;1937;51.444;6.484;2022-10-01T11:05:49;76326.72;;;17.58;97.86
3844;BME280;1937;51.444;6.484;2022-10-01T11:08:21;75612.06;;;17.26;97.34
3844;BME280;1937;51.444;6.484;2022-10-01T11:11:00;75775.28;;;16.97;97.91
3844;BME280;1937;51.444;6.484;2022-10-01T11:13:43;76211.97;;;16.94;99.12
3844;BME280;1937;51.444;6.484;2022-10-01T11:16:31;76964.00;;;16.81;99.82
3844;BME280;1937;51.444;6.484;2022-10-01T11:19:10;77643.06;;;16.75;100.00
3844;BME280;1937;51.444;6.484;2022-10-01T11:21:54;78488.00;;;17.13;100.00
3844;BME280;1937;51.444;6.484;2022-10-01T11:24:39;78436.19;;;16.88;100.00
3844;BME280;1937;51.444;6.484;2022-10-01T11:30:09;85683.00;;;15.96;100.00
3844;BME280;1937;51.444;6.484;2022-10-01T11:32:43;93077.28;;;15.79;100.00
3844;BME280;1937;51.444;6.484;2022-10-01T11:35:41;94667.56;;;15.86;100.00
3844;BME280;1937;51.444;6.484;2022-10-01T11:38:36;96687.97;;;15.95;100.00
3844;BME280;1937;51.444;6.484;2022-10-01T11:41:14;103894.81;;;16.37;100.00
3844;BME280;1937;51.444;6.484;2022-10-01T11:43:48;109055.22;;;17.00;100.00
3844;BME280;1937;51.444;6.484;2022-10-01T11:46:26;107040.72;;;17.04;100.00
3844;BME280;1937;51.444;6.484;2022-10-01T11:48:58;107743.50;;;17.20;100.00
3844;BME280;1937;51.444;6.484;2022-10-01T11:51:33;103064.44;;;17.40;100.00
3844;BME280;1937;51.444;6.484;2022-10-01T11:54:08;98126.94;;;17.27;100.00
3844;BME280;1937;51.444;6.484;2022-10-01T11:56:43;93034.22;;;17.36;100.00
3844;BME280;1937;51.444;6.484;2022-10-01T11:59:36;87671.13;;;17.01;100.00
3844;BME280;1937;51.444;6.484;2022-10-01T12:02:19;86340.22;;;16.84;100.00
3844;BME280;1937;51.444;6.484;2022-10-01T12:04:53;85901.91;;;16.93;100.00
3844;BME280;1937;51.444;6.484;2022-10-01T12:07:29;84380.13;;;16.69;100.00
3844;BME280;1937;51.444;6.484;2022-10-01T12:10:13;83025.09;;;16.84;100.00
3844;BME280;1937;51.444;6.484;2022-10-01T12:12:47;83759.66;;;17.22;100.00
3844;BME280;1937;51.444;6.484;2022-10-01T12:15:22;78138.16;;;17.29;95.14
3844;BME280;1937;51.444;6.484;2022-10-01T12:17:59;76124.44;;;17.74;95.00
3844;BME280;1937;51.444;6.484;2022-10-01T12:20:35;74731.31;;;18.05;92.19
3844;BME280;1937;51.444;6.484;2022-10-01T12:23:10;74455.03;;;18.14;94.38
3844;BME280;1937;51.444;6.484;2022-10-01T12:25:44;74726.06;;;18.55;94.25
3844;BME280;1937;51.444;6.484;2022-10-01T12:28:21;73904.78;;;18.79;90.92
3844;BME280;1937;51.444;6.484;2022-10-01T12:30:57;72931.78;;;18.87;89.18
3844;BME280;1937;51.444;6.484;2022-10-01T12:33:43;72560.66;;;18.99;87.99
3844;BME280;1937;51.444;6.484;2022-10-01T12:36:24;71993.03;;;18.28;87.57
3844;BME280;1937;51.444;6.484;2022-10-01T12:39:08;71546.34;;;18.02;87.68
3844;BME280;1937;51.444;6.484;2022-10-01T12:41:50;71421.00;;;17.45;88.70
3844;BME280;1937;51.444;6.484;2022-10-01T12:44:37;71492.31;;;17.25;90.13
3844;BME280;1937;51.444;6.484;2022-10-01T12:47:14;71526.00;;;17.27;89.95
3844;BME280;1937;51.444;6.484;2022-10-01T12:49:51;71769.41;;;17.55;89.96
3844;BME280;1937;51.444;6.484;2022-10-01T12:52:28;72231.38;;;17.86;90.86
3844;BME280;1937;51.444;6.484;2022-10-01T12:55:15;72004.31;;;18.07;88.81
3844;BME280;1937;51.444;6.484;2022-10-01T12:57:56;72215.25;;;18.41;91.15
3844;BME280;1937;51.444;6.484;2022-10-01T13:00:32;71694.31;;;18.53;87.38
3844;BME280;1937;51.444;6.484;2022-10-01T13:03:26;71636.63;;;18.39;88.61
3844;BME280;1937;51.444;6.484;2022-10-01T13:06:11;72065.84;;;17.85;92.21
3844;BME280;1937;51.444;6.484;2022-10-01T13:08:51;71439.38;;;17.52;88.01
3844;BME280;1937;51.444;6.484;2022-10-01T13:11:34;70874.97;;;17.33;86.39
3844;BME280;1937;51.444;6.484;2022-10-01T13:14:12;70792.41;;;16.79;88.68
3844;BME280;1937;51.444;6.484;2022-10-01T13:16:48;70889.84;;;16.50;89.95
3844;BME280;1937;51.444;6.484;2022-10-01T13:19:25;70782.38;;;16.60;88.16
3844;BME280;1937;51.444;6.484;2022-10-01T13:22:05;70909.59;;;16.86;88.86
3844;BME280;1937;51.444;6.484;2022-10-01T13:24:40;71189.50;;;16.76;90.69
3844;BME280;1937;51.444;6.484;2022-10-01T13:27:15;71384.09;;;16.67;91.71
3844;BME280;1937;51.444;6.484;2022-10-01T13:29:53;71789.34;;;17.05;92.25
3844;BME280;1937;51.444;6.484;2022-10-01T13:32:31;71575.34;;;17.20;89.50
3844;BME280;1937;51.444;6.484;2022-10-01T13:35:20;71416.22;;;17.65;88.48
3844;BME280;1937;51.444;6.484;2022-10-01T13:37:51;71069.19;;;17.39;87.99
3844;BME280;1937;51.444;6.484;2022-10-01T13:40:22;71224.44;;;17.59;88.67
3844;BME280;1937;51.444;6.484;2022-10-01T13:42:53;71101.69;;;17.79;87.26